createdAt,value
2017-09-24T00:01:11.179Z,20.90
2017-09-24T00:03:40.458Z,24.02
2017-09-24T00:06:09.705Z,22.02
2017-09-24T00:08:40.498Z,22.27
2017-09-24T00:11:09.749Z,21.87
2017-09-24T00:13:39.005Z,21.15
2017-09-24T00:16:08.434Z,21.73
2017-09-24T00:18:38.454Z,21.90
2017-09-24T00:21:08.492Z,25.42
2017-09-24T00:23:37.779Z,28.05
2017-09-24T00:26:07.803Z,24.40
2017-09-24T00:28:38.507Z,19.55
2017-09-24T00:31:07.755Z,22.83
2017-09-24T00:33:37.029Z,23.55
2017-09-24T00:36:07.883Z,21.30
2017-09-24T00:38:37.136Z,21.17
2017-09-24T00:41:06.392Z,25.40
2017-09-24T00:43:35.671Z,20.23
2017-09-24T00:46:05.679Z,22.13
2017-09-24T00:48:35.716Z,18.80
2017-09-24T00:51:05.722Z,21.35
2017-09-24T00:53:35.768Z,19.50
2017-09-24T00:56:05.013Z,21.42
2017-09-24T00:58:34.300Z,18.85
2017-09-24T01:01:23.075Z,22.87
2017-09-24T01:03:53.185Z,21.77
2017-09-24T01:06:23.361Z,21.08
2017-09-24T01:08:52.606Z,20.70
2017-09-24T01:11:22.651Z,20.90
2017-09-24T01:13:51.902Z,20.62
2017-09-24T01:16:21.147Z,20.37
2017-09-24T01:18:50.563Z,23.52
2017-09-24T01:21:19.810Z,21.35
2017-09-24T01:23:49.054Z,21.30
2017-09-24T01:26:18.323Z,22.90
2017-09-24T01:28:47.562Z,20.90
2017-09-24T01:31:16.810Z,22.17
2017-09-24T01:33:46.067Z,19.83
2017-09-24T01:36:15.335Z,22.10
2017-09-24T01:38:44.579Z,21.83
2017-09-24T01:41:13.846Z,20.95
2017-09-24T01:43:43.098Z,19.98
2017-09-24T01:46:12.359Z,18.90
2017-09-24T01:48:41.868Z,19.15
2017-09-24T01:51:11.108Z,27.08
2017-09-24T01:53:41.158Z,19.65
2017-09-24T01:56:11.179Z,20.62
2017-09-24T01:58:41.186Z,20.65
2017-09-24T02:01:11.328Z,21.35
2017-09-24T02:03:40.575Z,21.92
2017-09-24T02:06:09.819Z,27.95
2017-09-24T02:08:39.075Z,28.60
2017-09-24T02:11:09.179Z,23.95
2017-09-24T02:13:38.594Z,20.98
2017-09-24T02:16:07.851Z,20.85
2017-09-24T02:18:37.096Z,28.80
2017-09-24T02:21:06.347Z,27.75
2017-09-24T02:23:35.590Z,24.45
2017-09-24T02:26:04.847Z,23.75
2017-09-24T02:28:34.099Z,22.10
2017-09-24T02:31:03.355Z,24.30
2017-09-24T02:33:32.594Z,22.37
2017-09-24T02:36:02.167Z,29.45
2017-09-24T02:38:31.412Z,22.73
2017-09-24T02:41:00.685Z,26.35
2017-09-24T02:43:29.947Z,23.02
2017-09-24T02:45:59.218Z,21.48
2017-09-24T02:48:28.465Z,23.30
2017-09-24T02:50:58.549Z,24.20
2017-09-24T02:53:27.822Z,21.27
2017-09-24T02:55:57.079Z,25.30
2017-09-24T02:58:26.506Z,18.62
2017-09-24T03:00:55.756Z,24.92
2017-09-24T03:03:26.298Z,19.15
2017-09-24T03:05:55.566Z,24.63
2017-09-24T03:08:24.829Z,25.50
2017-09-24T03:10:54.052Z,26.95
2017-09-24T03:13:23.326Z,24.58
2017-09-24T03:15:52.574Z,24.58
2017-09-24T03:18:21.830Z,26.92
2017-09-24T03:20:51.873Z,25.75
2017-09-24T03:23:21.115Z,22.55
2017-09-24T03:25:50.379Z,21.70
2017-09-24T03:28:19.771Z,25.90
2017-09-24T03:30:49.024Z,30.77
2017-09-24T03:33:18.277Z,21.98
2017-09-24T03:35:47.543Z,23.20
2017-09-24T03:38:16.787Z,24.02
2017-09-24T03:40:46.034Z,25.90
2017-09-24T03:43:15.303Z,22.80
2017-09-24T03:45:45.315Z,24.60
2017-09-24T03:48:15.525Z,27.60
2017-09-24T03:50:44.786Z,22.00
2017-09-24T03:53:14.019Z,24.20
2017-09-24T03:55:43.535Z,22.58
2017-09-24T03:58:12.795Z,27.98
2017-09-24T04:00:42.942Z,23.85
2017-09-24T04:03:12.195Z,25.80
2017-09-24T04:05:43.614Z,23.35
2017-09-24T04:08:13.655Z,25.23
2017-09-24T04:10:42.906Z,23.48
2017-09-24T04:13:12.191Z,22.05
2017-09-24T04:15:43.018Z,22.52
2017-09-24T04:18:13.131Z,28.33
2017-09-24T04:20:43.401Z,23.23
2017-09-24T04:23:12.730Z,21.90
2017-09-24T04:25:43.330Z,26.23
2017-09-24T04:28:12.763Z,20.55
2017-09-24T04:30:42.777Z,21.20
2017-09-24T04:33:12.831Z,25.00
2017-09-24T04:35:42.074Z,22.00
2017-09-24T04:38:11.328Z,22.98
2017-09-24T04:40:40.739Z,20.70
2017-09-24T04:43:10.008Z,23.62
2017-09-24T04:45:40.043Z,24.00
2017-09-24T04:48:09.350Z,21.65
2017-09-24T04:50:39.155Z,21.00
2017-09-24T04:53:08.467Z,21.73
2017-09-24T04:55:37.735Z,23.00
2017-09-24T04:58:07.012Z,23.08
2017-09-24T05:00:37.464Z,27.83
2017-09-24T05:03:07.502Z,22.87
2017-09-24T05:05:37.710Z,27.58
2017-09-24T05:08:07.019Z,20.25
2017-09-24T05:10:36.331Z,21.00
2017-09-24T05:13:06.627Z,23.25
2017-09-24T05:15:36.653Z,23.48
2017-09-24T05:18:05.926Z,24.30
2017-09-24T05:20:35.228Z,23.23
2017-09-24T05:23:04.474Z,23.33
2017-09-24T05:25:33.760Z,24.12
2017-09-24T05:28:03.042Z,24.48
2017-09-24T05:30:33.059Z,21.92
2017-09-24T05:33:03.079Z,25.98
2017-09-24T05:35:33.092Z,21.85
2017-09-24T05:38:03.126Z,32.28
2017-09-24T05:40:33.142Z,26.95
2017-09-24T05:43:03.183Z,28.65
2017-09-24T05:45:32.463Z,24.35
2017-09-24T05:48:02.655Z,22.90
2017-09-24T05:50:31.947Z,24.05
2017-09-24T05:53:01.175Z,21.27
2017-09-24T05:55:31.399Z,23.65
2017-09-24T05:58:01.410Z,21.92
2017-09-24T06:00:30.716Z,25.52
2017-09-24T06:02:59.958Z,23.17
2017-09-24T06:05:29.215Z,25.88
2017-09-24T06:07:58.510Z,23.00
2017-09-24T06:10:28.545Z,24.55
2017-09-24T06:12:58.579Z,25.88
2017-09-24T06:15:27.883Z,26.52
2017-09-24T06:17:57.131Z,22.45
2017-09-24T06:20:26.377Z,24.70
2017-09-24T06:22:55.667Z,24.33
2017-09-24T06:25:24.933Z,27.73
2017-09-24T06:27:54.182Z,26.10
2017-09-24T06:30:23.463Z,28.87
2017-09-24T06:32:53.474Z,25.05
2017-09-24T06:35:23.525Z,25.45
2017-09-24T06:37:52.797Z,23.38
2017-09-24T06:40:23.120Z,22.50
2017-09-24T06:42:53.152Z,22.60
2017-09-24T06:45:23.158Z,20.50
2017-09-24T06:47:52.584Z,22.75
2017-09-24T06:50:22.607Z,23.23
2017-09-24T06:52:51.993Z,20.33
2017-09-24T06:55:21.261Z,21.00
2017-09-24T06:57:50.578Z,23.08
2017-09-24T07:00:19.873Z,26.90
2017-09-24T07:02:49.893Z,26.75
2017-09-24T07:05:23.284Z,28.87
2017-09-24T07:07:52.597Z,26.30
2017-09-24T07:10:22.052Z,30.37
2017-09-24T07:12:51.344Z,28.65
2017-09-24T07:15:20.784Z,23.85
2017-09-24T07:17:50.034Z,26.30
2017-09-24T07:20:19.293Z,24.65
2017-09-24T07:22:48.577Z,26.90
2017-09-24T07:25:17.832Z,27.83
2017-09-24T07:27:47.087Z,28.40
2017-09-24T07:30:16.386Z,28.62
2017-09-24T07:32:45.634Z,31.70
2017-09-24T07:35:14.884Z,30.02
2017-09-24T07:37:44.298Z,28.05
2017-09-24T07:40:14.319Z,31.10
2017-09-24T07:42:44.519Z,28.25
2017-09-24T07:45:13.772Z,30.50
2017-09-24T07:47:43.031Z,27.48
2017-09-24T07:50:12.299Z,38.63
2017-09-24T07:52:41.725Z,27.67
2017-09-24T07:55:10.978Z,29.33
2017-09-24T07:57:41.179Z,29.45
2017-09-24T08:00:10.447Z,35.88
2017-09-24T08:02:39.698Z,36.38
2017-09-24T08:05:08.975Z,33.78
2017-09-24T08:07:38.975Z,32.85
2017-09-24T08:10:09.116Z,30.92
2017-09-24T08:12:39.154Z,33.20
2017-09-24T08:15:10.836Z,30.55
2017-09-24T08:17:40.088Z,36.05
2017-09-24T08:20:10.287Z,33.50
2017-09-24T08:22:40.371Z,39.15
2017-09-24T08:25:09.700Z,35.20
2017-09-24T08:27:38.938Z,35.75
2017-09-24T08:30:08.186Z,33.53
2017-09-24T08:32:37.571Z,36.78
2017-09-24T08:35:09.435Z,36.17
2017-09-24T08:37:38.912Z,38.30
2017-09-24T08:40:08.163Z,35.40
2017-09-24T08:42:37.408Z,40.22
2017-09-24T08:45:06.689Z,42.50
2017-09-24T08:47:35.922Z,41.92
2017-09-24T08:50:05.192Z,41.08
2017-09-24T08:52:34.503Z,38.28
2017-09-24T08:55:03.939Z,41.42
2017-09-24T08:57:33.215Z,42.03
2017-09-24T09:00:02.856Z,44.17
2017-09-24T09:02:32.357Z,42.83
2017-09-24T09:05:01.874Z,45.53
2017-09-24T09:07:31.444Z,46.45
2017-09-24T09:10:01.013Z,39.70
2017-09-24T09:12:31.083Z,39.88
2017-09-24T09:15:00.354Z,39.10
2017-09-24T09:17:30.398Z,44.88
2017-09-24T09:19:59.659Z,41.92
2017-09-24T09:22:28.905Z,44.65
2017-09-24T09:24:58.336Z,39.42
2017-09-24T09:27:27.792Z,35.00
2017-09-24T09:29:57.039Z,41.58
2017-09-24T09:32:32.955Z,40.50
2017-09-24T09:35:14.851Z,38.15
2017-09-24T09:37:44.302Z,43.22
2017-09-24T09:40:13.538Z,38.33
2017-09-24T09:42:46.475Z,39.15
2017-09-24T09:45:25.547Z,35.85
2017-09-24T09:47:55.018Z,35.17
2017-09-24T09:50:24.513Z,38.30
2017-09-24T09:52:54.433Z,32.47
2017-09-24T09:55:24.692Z,34.92
2017-09-24T09:57:54.082Z,33.25
2017-09-24T10:00:23.656Z,41.00
2017-09-24T10:02:53.267Z,34.20
2017-09-24T10:05:22.503Z,41.83
2017-09-24T10:11:12.787Z,31.75
2017-09-24T10:13:42.241Z,32.75
2017-09-24T10:16:11.486Z,32.10
2017-09-24T10:18:40.731Z,33.10
2017-09-24T10:21:10.006Z,33.22
2017-09-24T10:23:39.255Z,27.48
2017-09-24T10:26:08.490Z,27.95
2017-09-24T10:28:55.346Z,28.15
2017-09-24T10:31:43.798Z,28.12
2017-09-24T10:34:13.855Z,29.58
2017-09-24T10:36:43.107Z,25.73
2017-09-24T10:39:13.127Z,26.17
2017-09-24T10:41:43.334Z,20.05
2017-09-24T10:44:12.578Z,19.10
2017-09-24T10:46:41.818Z,20.02
2017-09-24T10:49:11.118Z,16.85
2017-09-24T10:51:40.380Z,18.48
2017-09-24T10:54:09.631Z,18.40
2017-09-24T10:56:38.939Z,15.40
2017-09-24T10:59:08.191Z,19.80
2017-09-24T11:01:37.443Z,17.52
2017-09-24T11:04:07.475Z,18.60
2017-09-24T11:06:37.485Z,18.50
2017-09-24T11:09:07.521Z,20.17
2017-09-24T11:11:36.775Z,18.52
2017-09-24T11:14:06.014Z,16.92
2017-09-24T11:16:35.291Z,17.00
2017-09-24T11:19:04.542Z,20.60
2017-09-24T11:21:33.792Z,19.98
2017-09-24T11:24:03.212Z,19.95
2017-09-24T11:26:33.228Z,19.62
2017-09-24T11:29:03.315Z,20.08
2017-09-24T11:31:32.559Z,18.75
2017-09-24T11:34:01.810Z,18.62
2017-09-24T11:36:31.248Z,18.77
2017-09-24T11:39:01.265Z,14.43
2017-09-24T11:41:31.331Z,15.77
2017-09-24T11:44:01.395Z,15.90
2017-09-24T11:46:30.671Z,14.85
2017-09-24T11:48:59.935Z,21.25
2017-09-24T11:51:29.566Z,19.05
2017-09-24T11:53:58.838Z,21.60
2017-09-24T11:56:28.104Z,19.77
2017-09-24T11:58:57.342Z,16.58
2017-09-24T12:01:26.720Z,16.33
2017-09-24T12:03:56.748Z,18.02
2017-09-24T12:06:26.194Z,18.40
2017-09-24T12:08:55.458Z,15.50
2017-09-24T12:11:24.727Z,17.05
2017-09-24T12:13:53.991Z,16.40
2017-09-24T12:16:23.887Z,20.45
2017-09-24T12:18:53.158Z,17.00
2017-09-24T12:21:22.430Z,14.50
2017-09-24T12:23:51.674Z,15.90
2017-09-24T12:26:20.936Z,15.00
2017-09-24T12:28:50.183Z,16.20
2017-09-24T12:31:19.455Z,14.05
2017-09-24T12:33:48.705Z,15.85
2017-09-24T12:36:17.963Z,15.57
2017-09-24T12:38:47.222Z,16.95
2017-09-24T12:41:16.650Z,18.08
2017-09-24T12:43:46.655Z,17.85
2017-09-24T12:46:15.938Z,22.05
2017-09-24T12:48:45.185Z,25.50
2017-09-24T12:51:15.221Z,23.77
2017-09-24T12:53:44.635Z,25.02
2017-09-24T12:56:13.880Z,22.80
2017-09-24T12:58:43.402Z,20.65
2017-09-24T13:01:13.442Z,22.13
2017-09-24T13:03:43.334Z,24.98
2017-09-24T13:06:13.386Z,23.80
2017-09-24T13:08:42.629Z,19.85
2017-09-24T13:11:11.889Z,22.23
2017-09-24T13:13:41.295Z,20.27
2017-09-24T13:16:10.550Z,21.50
2017-09-24T13:18:40.620Z,17.98
2017-09-24T13:21:09.871Z,17.15
2017-09-24T13:23:39.937Z,18.62
2017-09-24T13:26:09.194Z,18.83
2017-09-24T13:28:39.246Z,20.30
2017-09-24T13:31:08.495Z,19.60
2017-09-24T13:33:37.793Z,18.80
2017-09-24T13:36:07.167Z,20.02
2017-09-24T13:38:36.415Z,20.80
2017-09-24T13:41:06.614Z,17.58
2017-09-24T13:43:35.868Z,14.32
2017-09-24T13:46:05.118Z,15.98
2017-09-24T13:48:34.548Z,20.48
2017-09-24T13:51:04.624Z,20.02
2017-09-24T13:53:34.091Z,16.60
2017-09-24T13:56:03.339Z,17.20
2017-09-24T13:58:32.584Z,18.77
2017-09-24T14:01:01.897Z,16.62
2017-09-24T14:03:31.140Z,17.02
2017-09-24T14:06:00.390Z,19.12
2017-09-24T14:08:29.684Z,20.65
2017-09-24T14:10:58.950Z,16.25
2017-09-24T14:13:28.196Z,19.25
2017-09-24T14:15:57.619Z,17.20
2017-09-24T14:18:26.899Z,18.25
2017-09-24T14:20:56.139Z,17.62
2017-09-24T14:23:25.427Z,19.55
2017-09-24T14:25:54.693Z,19.12
2017-09-24T14:28:23.939Z,19.12
2017-09-24T14:30:53.210Z,14.30
2017-09-24T14:33:22.452Z,15.30
2017-09-24T14:35:51.698Z,14.85
2017-09-24T14:38:21.063Z,14.63
2017-09-24T14:40:50.342Z,13.25
2017-09-24T14:43:19.679Z,12.10
2017-09-24T14:45:49.726Z,12.60
2017-09-24T14:48:19.045Z,13.68
2017-09-24T14:50:48.266Z,15.00
2017-09-24T14:53:17.566Z,14.18
2017-09-24T14:55:46.814Z,14.65
2017-09-24T14:58:16.099Z,13.57
2017-09-24T15:00:46.127Z,18.12
2017-09-24T15:03:16.132Z,11.93
2017-09-24T15:05:46.346Z,16.48
2017-09-24T15:08:16.382Z,14.55
2017-09-24T15:10:46.427Z,17.73
2017-09-24T15:13:15.669Z,15.70
2017-09-24T15:15:44.912Z,15.50
2017-09-24T15:18:14.239Z,17.48
2017-09-24T15:20:43.451Z,15.68
2017-09-24T15:23:12.744Z,18.60
2017-09-24T15:25:41.997Z,17.15
2017-09-24T15:28:12.673Z,16.73
2017-09-24T15:30:41.935Z,18.83
2017-09-24T15:33:11.220Z,15.38
2017-09-24T15:35:41.247Z,16.08
2017-09-24T15:38:11.293Z,14.38
2017-09-24T15:40:40.534Z,16.52
2017-09-24T15:43:09.790Z,16.15
2017-09-24T15:45:39.048Z,15.55
2017-09-24T15:48:09.103Z,14.80
2017-09-24T15:50:38.559Z,14.80
2017-09-24T15:53:07.802Z,17.02
2017-09-24T15:55:37.058Z,16.35
2017-09-24T15:58:06.336Z,13.65
2017-09-24T16:00:35.581Z,14.95
2017-09-24T16:03:05.636Z,17.67
2017-09-24T16:05:36.270Z,14.95
2017-09-24T16:08:05.547Z,14.40
2017-09-24T16:10:35.576Z,16.70
2017-09-24T16:13:04.814Z,15.32
2017-09-24T16:15:34.115Z,20.70
2017-09-24T16:18:03.375Z,17.25
2017-09-24T16:20:33.907Z,15.18
2017-09-24T16:23:03.143Z,19.95
2017-09-24T16:25:32.400Z,16.50
2017-09-24T16:28:01.828Z,18.23
2017-09-24T16:30:31.074Z,17.65
2017-09-24T16:33:01.278Z,17.65
2017-09-24T16:35:30.587Z,18.60
2017-09-24T16:38:00.632Z,18.27
2017-09-24T16:40:30.671Z,16.95
2017-09-24T16:42:59.918Z,17.55
2017-09-24T16:45:29.177Z,18.17
2017-09-24T16:47:58.483Z,16.67
2017-09-24T16:50:27.739Z,22.02
2017-09-24T16:52:57.808Z,20.73
2017-09-24T16:55:27.392Z,18.80
2017-09-24T16:57:56.621Z,18.77
2017-09-24T17:00:25.882Z,20.67
2017-09-24T17:02:55.316Z,21.60
2017-09-24T17:05:25.335Z,19.37
2017-09-24T17:07:55.591Z,24.73
2017-09-24T17:10:24.871Z,19.83
2017-09-24T17:12:54.144Z,20.08
2017-09-24T17:15:24.219Z,19.67
2017-09-24T17:17:53.481Z,19.25
2017-09-24T17:20:23.863Z,20.62
2017-09-24T17:22:53.095Z,20.17
2017-09-24T17:25:22.531Z,18.83
2017-09-24T17:27:52.792Z,19.85
2017-09-24T17:30:25.651Z,19.92
2017-09-24T17:32:54.891Z,21.98
2017-09-24T17:35:24.187Z,20.48
2017-09-24T17:37:53.441Z,18.85
2017-09-24T17:40:22.692Z,17.92
2017-09-24T17:42:52.187Z,18.58
2017-09-24T17:45:22.208Z,17.17
2017-09-24T17:47:52.436Z,19.87
2017-09-24T17:50:21.691Z,18.27
2017-09-24T17:52:50.943Z,21.50
2017-09-24T17:55:20.212Z,17.85
2017-09-24T17:57:49.520Z,16.48
2017-09-24T18:00:19.592Z,20.83
2017-09-24T18:02:48.874Z,24.48
2017-09-24T18:05:18.189Z,17.48
2017-09-24T18:07:47.638Z,21.67
2017-09-24T18:10:16.896Z,19.75
2017-09-24T18:12:46.151Z,19.67
2017-09-24T18:15:16.238Z,18.40
2017-09-24T18:17:46.297Z,19.08
2017-09-24T18:20:15.605Z,18.40
2017-09-24T18:22:44.905Z,19.25
2017-09-24T18:25:14.921Z,19.90
2017-09-24T18:27:44.195Z,17.77
2017-09-24T18:30:14.211Z,18.20
2017-09-24T18:32:44.682Z,18.55
2017-09-24T18:35:13.983Z,17.80
2017-09-24T18:37:43.249Z,21.15
2017-09-24T18:40:13.433Z,16.10
2017-09-24T18:42:42.759Z,15.45
2017-09-24T18:45:12.091Z,19.77
2017-09-24T18:47:41.347Z,15.85
2017-09-24T18:50:10.795Z,19.52
2017-09-24T18:52:50.896Z,13.73
2017-09-24T18:55:20.163Z,14.50
2017-09-24T18:57:49.552Z,14.25
2017-09-24T19:00:20.148Z,14.45
2017-09-24T19:02:49.443Z,13.15
2017-09-24T19:05:18.911Z,14.07
2017-09-24T19:07:48.180Z,16.10
2017-09-24T19:10:18.227Z,12.52
2017-09-24T19:12:47.484Z,14.43
2017-09-24T19:15:17.546Z,14.05
2017-09-24T19:17:46.792Z,12.93
2017-09-24T19:20:16.041Z,12.73
2017-09-24T19:22:45.497Z,11.55
2017-09-24T19:25:14.739Z,12.05
2017-09-24T19:27:43.988Z,13.25
2017-09-24T19:30:13.519Z,12.30
2017-09-24T19:32:43.529Z,13.95
2017-09-24T19:35:13.567Z,14.23
2017-09-24T19:37:42.827Z,16.90
2017-09-24T19:40:12.107Z,14.80
2017-09-24T19:42:41.359Z,12.60
2017-09-24T19:45:11.555Z,11.82
2017-09-24T19:47:40.810Z,19.85
2017-09-24T19:50:10.092Z,13.55
2017-09-24T19:52:39.538Z,15.45
2017-09-24T19:55:08.785Z,12.48
2017-09-24T19:57:38.850Z,13.75
2017-09-24T20:00:08.099Z,13.68
2017-09-24T20:02:38.307Z,12.45
2017-09-24T20:05:07.559Z,12.82
2017-09-24T20:07:36.807Z,13.60
2017-09-24T20:10:06.087Z,13.48
2017-09-24T20:12:35.337Z,13.27
2017-09-24T20:15:04.616Z,14.98
2017-09-24T20:17:34.629Z,13.82
2017-09-24T20:20:04.658Z,13.15
2017-09-24T20:22:34.677Z,14.38
2017-09-24T20:25:04.874Z,13.55
2017-09-24T20:27:34.116Z,14.70
2017-09-24T20:30:03.380Z,20.85
2017-09-24T20:32:32.678Z,17.05
2017-09-24T20:35:01.931Z,13.73
2017-09-24T20:37:31.183Z,15.18
2017-09-24T20:40:00.454Z,15.68
2017-09-24T20:42:29.735Z,15.13
2017-09-24T20:44:58.979Z,15.73
2017-09-24T20:47:28.363Z,13.50
2017-09-24T20:49:57.619Z,13.82
2017-09-24T20:52:26.875Z,15.13
2017-09-24T20:54:56.150Z,14.32
2017-09-24T20:57:25.408Z,17.25
2017-09-24T20:59:55.458Z,13.65
2017-09-24T21:02:24.726Z,12.60
2017-09-24T21:04:53.987Z,17.98
2017-09-24T21:07:23.314Z,16.85
2017-09-24T21:09:53.340Z,18.73
2017-09-24T21:12:23.405Z,18.37
2017-09-24T21:14:52.670Z,15.88
2017-09-24T21:17:22.717Z,16.42
2017-09-24T21:19:52.681Z,15.20
2017-09-24T21:22:21.968Z,15.93
2017-09-24T21:24:51.965Z,13.52
2017-09-24T21:27:21.231Z,18.58
2017-09-24T21:29:50.667Z,16.62
2017-09-24T21:32:19.924Z,15.02
2017-09-24T21:34:49.175Z,16.77
2017-09-24T21:37:18.591Z,15.80
2017-09-24T21:39:47.844Z,16.45
2017-09-24T21:42:17.099Z,16.25
2017-09-24T21:44:46.535Z,17.17
2017-09-24T21:47:15.787Z,19.33
2017-09-24T21:49:45.036Z,15.07
2017-09-24T21:52:14.451Z,19.87
2017-09-24T21:54:43.712Z,15.85
2017-09-24T21:57:12.963Z,18.35
2017-09-24T21:59:42.778Z,17.10
2017-09-24T22:02:12.035Z,15.98
2017-09-24T22:04:41.285Z,16.75
2017-09-24T22:07:10.546Z,15.90
2017-09-24T22:09:39.794Z,15.65
2017-09-24T22:12:09.100Z,14.57
2017-09-24T22:14:38.344Z,19.00
2017-09-24T22:17:07.600Z,19.77
2017-09-24T22:19:37.048Z,21.15
2017-09-24T22:22:07.067Z,20.17
2017-09-24T22:24:36.363Z,19.87
2017-09-24T22:27:06.383Z,21.37
2017-09-24T22:29:36.423Z,21.83
2017-09-24T22:32:05.724Z,18.58
2017-09-24T22:34:34.975Z,20.00
2017-09-24T22:37:04.230Z,19.05
2017-09-24T22:39:33.693Z,21.48
2017-09-24T22:42:02.931Z,18.17
2017-09-24T22:44:32.245Z,20.90
2017-09-24T22:47:01.507Z,18.77
2017-09-24T22:49:30.767Z,17.52
2017-09-24T22:52:00.008Z,18.02
2017-09-24T22:54:29.271Z,17.75
2017-09-24T22:56:58.524Z,19.15
2017-09-24T22:59:27.809Z,16.33
2017-09-24T23:01:57.077Z,21.33
2017-09-24T23:04:26.368Z,17.10
2017-09-24T23:06:55.880Z,16.95
2017-09-24T23:09:25.134Z,16.50
2017-09-24T23:11:54.378Z,19.70
2017-09-24T23:14:23.653Z,18.62
2017-09-24T23:16:52.898Z,18.95
2017-09-24T23:19:22.991Z,16.90
2017-09-24T23:21:52.259Z,17.85
2017-09-24T23:24:21.507Z,16.45
2017-09-24T23:26:50.857Z,19.60
2017-09-24T23:29:20.839Z,19.00
2017-09-24T23:31:51.623Z,17.10
2017-09-24T23:34:20.903Z,16.80
2017-09-24T23:36:50.224Z,19.80
2017-09-24T23:39:19.540Z,21.00
2017-09-24T23:41:48.799Z,18.27
2017-09-24T23:44:18.108Z,18.23
2017-09-24T23:46:47.412Z,18.50
2017-09-24T23:49:16.663Z,18.02
2017-09-24T23:51:45.955Z,16.60
2017-09-24T23:54:15.216Z,18.40
2017-09-24T23:56:44.459Z,18.67
2017-09-24T23:59:13.757Z,26.75
